createdAt,value
2017-01-04T00:07:24.368Z,100
2017-01-04T00:17:36.013Z,100
2017-01-04T00:27:47.411Z,100
2017-01-04T00:37:59.005Z,100
2017-01-04T00:48:10.583Z,100
2017-01-04T00:58:22.126Z,100
2017-01-04T01:08:33.780Z,100
2017-01-04T01:18:45.285Z,100
2017-01-04T01:28:56.817Z,100
2017-01-04T01:39:08.364Z,100
2017-01-04T01:49:19.910Z,100
2017-01-04T01:59:31.546Z,100
2017-01-04T02:09:43.044Z,100
2017-01-04T02:19:54.603Z,100
2017-01-04T02:30:06.091Z,100
2017-01-04T02:40:17.586Z,100
2017-01-04T02:50:29.096Z,99.1
2017-01-04T03:00:40.515Z,99.1
2017-01-04T03:10:51.913Z,97.7
2017-01-04T03:21:03.302Z,96.9
2017-01-04T03:31:14.687Z,96.8
2017-01-04T03:41:26.005Z,96.9
2017-01-04T03:51:37.328Z,97.7
2017-01-04T04:01:48.666Z,98.9
2017-01-04T04:11:59.996Z,96.6
2017-01-04T04:22:11.356Z,94.5
2017-01-04T04:32:22.770Z,93
2017-01-04T04:42:34.214Z,92.8
2017-01-04T04:52:45.634Z,93.4
2017-01-04T05:02:57.086Z,90.9
2017-01-04T05:13:08.617Z,90.4
2017-01-04T05:23:20.100Z,87.8
2017-01-04T05:33:31.541Z,88.4
2017-01-04T05:43:42.878Z,86.7
2017-01-04T05:53:54.255Z,84.8
2017-01-04T06:04:05.673Z,86.2
2017-01-04T06:14:17.111Z,83.9
2017-01-04T06:24:28.530Z,83.4
2017-01-04T06:34:39.936Z,82.8
2017-01-04T06:44:51.370Z,82.9
2017-01-04T06:55:02.770Z,82.8
2017-01-04T07:05:14.171Z,82.2
2017-01-04T07:15:25.583Z,81.1
2017-01-04T07:25:36.944Z,82
2017-01-04T07:35:48.339Z,80.8
2017-01-04T07:45:59.806Z,80.3
2017-01-04T07:56:11.290Z,80.7
2017-01-04T08:06:22.735Z,80.7
2017-01-04T08:16:34.121Z,79.9
2017-01-04T08:26:45.472Z,78.6
2017-01-04T08:36:56.811Z,83.6
2017-01-04T08:47:08.258Z,84.5
2017-01-04T08:57:19.740Z,87.5
2017-01-04T09:07:31.269Z,88.1
2017-01-04T09:17:42.799Z,88.3
2017-01-04T09:27:54.334Z,88.2
2017-01-04T09:38:05.818Z,87.6
2017-01-04T09:48:17.297Z,83
2017-01-04T09:58:28.766Z,82.4
2017-01-04T10:08:40.182Z,82.5
2017-01-04T10:18:51.436Z,89.4
2017-01-04T10:29:02.845Z,88.6
2017-01-04T10:39:14.313Z,94.7
2017-01-04T10:49:25.888Z,96.2
2017-01-04T10:59:37.437Z,93.7
2017-01-04T11:09:48.960Z,94.4
2017-01-04T11:20:00.429Z,92
2017-01-04T11:30:11.853Z,87.2
2017-01-04T11:40:23.070Z,86
2017-01-04T11:50:34.202Z,83.4
2017-01-04T12:00:45.364Z,80.3
2017-01-04T12:10:56.501Z,80.5
2017-01-04T12:21:07.515Z,79.3
2017-01-04T12:31:18.435Z,81.6
2017-01-04T12:41:29.297Z,81.4
2017-01-04T12:51:39.984Z,80.9
2017-01-04T13:01:50.665Z,76.7
2017-01-04T13:12:01.421Z,75
2017-01-04T13:22:12.162Z,71.7
2017-01-04T13:32:22.753Z,71.5
2017-01-04T13:42:33.450Z,72.9
2017-01-04T13:52:44.506Z,81.5
2017-01-04T14:02:55.784Z,92.7
2017-01-04T14:13:07.199Z,96.4
2017-01-04T14:23:18.705Z,97
2017-01-04T14:33:30.260Z,95.6
2017-01-04T14:43:41.836Z,95.4
2017-01-04T14:53:53.376Z,93.1
2017-01-04T15:04:04.893Z,91.8
2017-01-04T15:14:16.458Z,92.8
2017-01-04T15:24:28.258Z,100
2017-01-04T15:34:39.746Z,100
2017-01-04T15:44:51.612Z,99.4
2017-01-04T15:55:03.496Z,99.2
2017-01-04T16:05:15.523Z,99.3
2017-01-04T16:15:27.493Z,97.6
2017-01-04T16:25:39.466Z,97.1
2017-01-04T16:35:51.470Z,97
2017-01-04T16:46:03.453Z,97
2017-01-04T16:56:15.361Z,96.2
2017-01-04T17:06:27.242Z,94.8
2017-01-04T17:16:39.102Z,94.5
2017-01-04T17:26:50.977Z,95.5
2017-01-04T17:37:02.805Z,94.9
2017-01-04T17:47:14.570Z,95.4
2017-01-04T17:57:26.338Z,96.3
2017-01-04T18:07:38.093Z,96.8
2017-01-04T18:17:49.857Z,97.1
2017-01-04T18:28:01.646Z,96.6
2017-01-04T18:38:13.429Z,95.8
2017-01-04T18:48:25.183Z,86.7
2017-01-04T18:58:36.969Z,79.1
2017-01-04T19:08:48.817Z,87.3
2017-01-04T19:19:00.653Z,87.3
2017-01-04T19:29:12.503Z,78.9
2017-01-04T19:39:24.275Z,76.3
2017-01-04T19:49:36.065Z,76.4
2017-01-04T19:59:47.853Z,77.7
2017-01-04T20:09:59.632Z,80
2017-01-04T20:20:11.417Z,81
2017-01-04T20:30:23.218Z,81.1
2017-01-04T20:40:35.043Z,81.7
2017-01-04T20:50:46.919Z,81.8
2017-01-04T21:00:58.779Z,82.4
2017-01-04T21:11:10.618Z,82.8
2017-01-04T21:21:22.472Z,82.4
2017-01-04T21:31:34.411Z,83
2017-01-04T21:41:46.294Z,82.1
2017-01-04T21:51:58.205Z,81.3
2017-01-04T22:02:10.182Z,81.1
2017-01-04T22:12:22.241Z,82.3
2017-01-04T22:22:34.304Z,83.6
2017-01-04T22:32:46.382Z,83.2
2017-01-04T22:42:58.466Z,84.8
2017-01-04T22:53:10.497Z,86.7
2017-01-04T23:03:22.570Z,86
2017-01-04T23:13:34.824Z,80.3
2017-01-04T23:23:46.721Z,77.3
2017-01-04T23:33:58.739Z,76.1
2017-01-04T23:44:10.729Z,76.5
2017-01-04T23:54:22.703Z,76.1
